createdAt,value
2017-06-21T00:00:14.563Z,933.96
2017-06-21T00:00:33.372Z,933.94
2017-06-21T00:00:52.674Z,933.96
2017-06-21T00:01:11.988Z,933.91
2017-06-21T00:01:30.766Z,933.94
2017-06-21T00:01:50.071Z,933.96
2017-06-21T00:02:09.394Z,933.98
2017-06-21T00:02:28.805Z,933.95
2017-06-21T00:02:48.480Z,933.99
2017-06-21T00:03:08.174Z,933.99
2017-06-21T00:03:27.601Z,933.91
2017-06-21T00:03:47.604Z,933.99
2017-06-21T00:04:07.059Z,933.99
2017-06-21T00:04:25.950Z,933.96
2017-06-21T00:04:45.405Z,933.96
2017-06-21T00:05:05.399Z,933.96
2017-06-21T00:05:24.293Z,933.96
2017-06-21T00:05:44.312Z,933.99
2017-06-21T00:06:04.348Z,933.97
2017-06-21T00:06:24.374Z,933.96
2017-06-21T00:06:44.386Z,934.01
2017-06-21T00:07:03.867Z,933.95
2017-06-21T00:07:23.313Z,933.97
2017-06-21T00:07:43.326Z,933.96
2017-06-21T00:08:03.331Z,933.99
2017-06-21T00:08:23.345Z,933.98
2017-06-21T00:08:43.340Z,934
2017-06-21T00:09:02.820Z,934.01
2017-06-21T00:09:22.831Z,933.99
2017-06-21T00:09:42.306Z,934.01
2017-06-21T00:10:02.348Z,934
2017-06-21T00:10:21.813Z,934.03
2017-06-21T00:10:41.816Z,934.02
2017-06-21T00:11:01.842Z,934.04
2017-06-21T00:11:21.842Z,934.03
2017-06-21T00:11:41.853Z,934.02
2017-06-21T00:12:01.848Z,934.06
2017-06-21T00:12:21.882Z,934.08
2017-06-21T00:12:41.881Z,934.07
2017-06-21T00:13:01.920Z,934.04
2017-06-21T00:13:21.354Z,934.07
2017-06-21T00:13:41.401Z,934.04
2017-06-21T00:14:01.420Z,934.03
2017-06-21T00:14:20.866Z,934.07
2017-06-21T00:14:40.323Z,934.08
2017-06-21T00:15:00.344Z,934.1
2017-06-21T00:15:20.386Z,934.06
2017-06-21T00:15:40.399Z,934.09
2017-06-21T00:16:00.400Z,934.07
2017-06-21T00:16:19.847Z,934.04
2017-06-21T00:16:39.879Z,934.05
2017-06-21T00:16:59.352Z,934.04
2017-06-21T00:17:19.388Z,934.07
2017-06-21T00:17:39.396Z,934.08
2017-06-21T00:17:59.435Z,934.05
2017-06-21T00:18:19.459Z,934.08
2017-06-21T00:18:39.491Z,934.07
2017-06-21T00:18:59.322Z,934.11
2017-06-21T00:19:18.996Z,934.1
2017-06-21T00:19:38.120Z,934.07
2017-06-21T00:19:57.554Z,934.14
2017-06-21T00:20:16.857Z,934.1
2017-06-21T00:20:36.160Z,934.11
2017-06-21T00:20:55.489Z,934.1
2017-06-21T00:21:14.261Z,934.13
2017-06-21T00:21:33.579Z,934.09
2017-06-21T00:21:52.905Z,934.09
2017-06-21T00:22:11.684Z,934.11
2017-06-21T00:22:30.984Z,934.09
2017-06-21T00:22:50.283Z,934.08
2017-06-21T00:23:09.611Z,934.12
2017-06-21T00:23:28.926Z,934.13
2017-06-21T00:23:48.244Z,934.08
2017-06-21T00:24:07.026Z,934.09
2017-06-21T00:24:26.340Z,934.11
2017-06-21T00:24:45.632Z,934.08
2017-06-21T00:25:04.938Z,934.07
2017-06-21T00:25:24.233Z,934.03
2017-06-21T00:25:43.538Z,934.05
2017-06-21T00:26:02.350Z,934.05
2017-06-21T00:26:21.684Z,934.08
2017-06-21T00:26:40.463Z,934.06
2017-06-21T00:26:58.728Z,934.08
2017-06-21T00:27:18.061Z,934.1
2017-06-21T00:27:37.377Z,934.09
2017-06-21T00:27:56.159Z,934.06
2017-06-21T00:28:15.473Z,934.06
2017-06-21T00:28:34.793Z,934.07
2017-06-21T00:28:54.103Z,934.09
2017-06-21T00:29:12.908Z,934.06
2017-06-21T00:29:32.224Z,934.08
2017-06-21T00:29:51.581Z,934.05
2017-06-21T00:30:10.689Z,934.1
2017-06-21T00:30:30.347Z,934.1
2017-06-21T00:30:49.492Z,934.06
2017-06-21T00:31:09.172Z,934.13
2017-06-21T00:31:28.511Z,934.12
2017-06-21T00:31:48.007Z,934.07
2017-06-21T00:32:07.458Z,934.08
2017-06-21T00:32:27.493Z,934.1
2017-06-21T00:32:46.961Z,934.08
2017-06-21T00:33:06.992Z,934.15
2017-06-21T00:34:14.888Z,934.11
2017-06-21T00:34:34.900Z,934.11
2017-06-21T00:34:54.930Z,934.12
2017-06-21T00:35:14.381Z,934.14
2017-06-21T00:35:34.407Z,934.14
2017-06-21T00:35:54.418Z,934.1
2017-06-21T00:36:14.481Z,934.11
2017-06-21T00:36:35.185Z,934.11
2017-06-21T00:36:54.094Z,934.09
2017-06-21T00:37:13.534Z,934.13
2017-06-21T00:37:33.339Z,934.15
2017-06-21T00:37:53.001Z,934.11
2017-06-21T00:38:12.683Z,934.07
2017-06-21T00:38:32.205Z,934.13
2017-06-21T00:38:51.537Z,934.08
2017-06-21T00:39:10.347Z,934.13
2017-06-21T00:39:29.734Z,934.1
2017-06-21T00:39:48.550Z,934.11
2017-06-21T00:40:07.859Z,934.08
2017-06-21T00:40:27.180Z,934.13
2017-06-21T00:40:46.470Z,934.13
2017-06-21T00:41:05.834Z,934.13
2017-06-21T00:41:25.481Z,934.13
2017-06-21T00:41:44.766Z,934.12
2017-06-21T00:42:04.068Z,934.11
2017-06-21T00:42:23.395Z,934.13
2017-06-21T00:42:42.725Z,934.12
2017-06-21T00:43:02.033Z,934.13
2017-06-21T00:43:23.621Z,934.14
2017-06-21T00:43:42.387Z,934.12
2017-06-21T00:44:01.703Z,934.11
2017-06-21T00:44:20.489Z,934.11
2017-06-21T00:44:39.265Z,934.08
2017-06-21T00:44:58.560Z,934.13
2017-06-21T00:45:17.851Z,934.14
2017-06-21T00:45:37.149Z,934.12
2017-06-21T00:45:56.458Z,934.12
2017-06-21T00:46:15.768Z,934.11
2017-06-21T00:46:35.078Z,934.14
2017-06-21T00:46:54.373Z,934.13
2017-06-21T00:47:12.651Z,934.11
2017-06-21T00:47:32.035Z,934.08
2017-06-21T00:47:51.870Z,934.11
2017-06-21T00:48:11.896Z,934.13
2017-06-21T00:48:31.934Z,934.16
2017-06-21T00:48:51.956Z,934.13
2017-06-21T00:49:11.998Z,934.15
2017-06-21T00:49:32.047Z,934.16
2017-06-21T00:49:52.043Z,934.15
2017-06-21T00:50:11.518Z,934.11
2017-06-21T00:50:31.568Z,934.17
2017-06-21T00:50:52.032Z,934.1
2017-06-21T00:51:12.266Z,934.11
2017-06-21T00:51:32.335Z,934.15
2017-06-21T00:51:52.361Z,934.16
2017-06-21T00:52:12.376Z,934.16
2017-06-21T00:52:32.794Z,934.15
2017-06-21T00:52:52.825Z,934.15
2017-06-21T00:53:12.865Z,934.16
2017-06-21T00:53:32.932Z,934.15
2017-06-21T00:53:53.619Z,934.17
2017-06-21T00:54:13.652Z,934.15
2017-06-21T00:54:33.702Z,934.15
2017-06-21T00:54:53.719Z,934.16
2017-06-21T00:55:13.173Z,934.14
2017-06-21T00:55:33.179Z,934.19
2017-06-21T00:55:52.638Z,934.17
2017-06-21T00:56:13.986Z,934.13
2017-06-21T00:56:34.013Z,934.2
2017-06-21T00:56:54.010Z,934.16
2017-06-21T00:57:13.465Z,934.16
2017-06-21T00:57:33.493Z,934.17
2017-06-21T00:57:53.505Z,934.15
2017-06-21T00:58:13.506Z,934.18
2017-06-21T00:58:33.498Z,934.17
2017-06-21T00:58:53.534Z,934.22
2017-06-21T00:59:12.989Z,934.19
2017-06-21T00:59:33.001Z,934.2
2017-06-21T00:59:53.009Z,934.23
2017-06-21T01:00:12.460Z,934.19
2017-06-21T01:00:32.472Z,934.2
2017-06-21T01:00:52.493Z,934.26
2017-06-21T01:01:12.496Z,934.19
2017-06-21T01:01:32.522Z,934.23
2017-06-21T01:01:52.573Z,934.23
2017-06-21T01:02:12.584Z,934.25
2017-06-21T01:02:32.587Z,934.25
2017-06-21T01:02:52.591Z,934.19
2017-06-21T01:03:12.604Z,934.2
2017-06-21T01:03:32.644Z,934.22
2017-06-21T01:03:52.683Z,934.22
2017-06-21T01:04:12.712Z,934.25
2017-06-21T01:04:32.728Z,934.21
2017-06-21T01:04:52.765Z,934.21
2017-06-21T01:05:12.245Z,934.2
2017-06-21T01:05:31.695Z,934.19
2017-06-21T01:05:51.703Z,934.22
2017-06-21T01:06:11.715Z,934.19
2017-06-21T01:06:31.742Z,934.19
2017-06-21T01:06:51.759Z,934.15
2017-06-21T01:07:11.769Z,934.17
2017-06-21T01:07:31.801Z,934.19
2017-06-21T01:07:51.820Z,934.19
2017-06-21T01:08:11.883Z,934.19
2017-06-21T01:08:30.780Z,934.16
2017-06-21T01:08:50.888Z,934.16
2017-06-21T01:09:10.881Z,934.18
2017-06-21T01:09:30.874Z,934.2
2017-06-21T01:09:50.885Z,934.15
2017-06-21T01:10:10.343Z,934.17
2017-06-21T01:10:30.369Z,934.12
2017-06-21T01:10:50.407Z,934.15
2017-06-21T01:11:10.448Z,934.19
2017-06-21T01:11:30.462Z,934.2
2017-06-21T01:11:49.931Z,934.13
2017-06-21T01:12:09.982Z,934.17
2017-06-21T01:12:29.985Z,934.1
2017-06-21T01:12:48.882Z,934.1
2017-06-21T01:13:08.306Z,934.13
2017-06-21T01:13:28.320Z,934.14
2017-06-21T01:13:48.345Z,934.12
2017-06-21T01:14:08.379Z,934.14
2017-06-21T01:14:27.815Z,934.15
2017-06-21T01:14:47.819Z,934.11
2017-06-21T01:15:07.244Z,934.1
2017-06-21T01:15:27.264Z,934.1
2017-06-21T01:15:47.268Z,934.14
2017-06-21T01:16:07.287Z,934.07
2017-06-21T01:16:27.295Z,934.09
2017-06-21T01:16:47.365Z,934.08
2017-06-21T01:17:07.434Z,934.1
2017-06-21T01:17:27.536Z,934.11
2017-06-21T01:17:47.615Z,934.1
2017-06-21T01:18:07.702Z,934.1
2017-06-21T01:18:27.168Z,934.11
2017-06-21T01:18:47.181Z,934.08
2017-06-21T01:19:07.218Z,934.06
2017-06-21T01:19:27.451Z,934.11
2017-06-21T01:19:47.463Z,934.09
2017-06-21T01:20:06.980Z,934.11
2017-06-21T01:20:26.330Z,934.08
2017-06-21T01:20:45.591Z,934.1
2017-06-21T01:21:05.230Z,934.06
2017-06-21T01:21:24.888Z,934.07
2017-06-21T01:21:44.054Z,934.1
2017-06-21T01:22:04.332Z,934.11
2017-06-21T01:22:27.621Z,934.09
2017-06-21T01:22:46.715Z,934.06
2017-06-21T01:23:05.845Z,934.09
2017-06-21T01:23:25.512Z,934.08
2017-06-21T01:23:44.368Z,934.06
2017-06-21T01:24:03.658Z,934.1
2017-06-21T01:24:23.504Z,934.07
2017-06-21T01:24:42.831Z,934.04
2017-06-21T01:25:01.097Z,934.01
2017-06-21T01:25:20.394Z,934.02
2017-06-21T01:25:39.714Z,934.03
2017-06-21T01:25:59.075Z,934
2017-06-21T01:26:18.423Z,933.99
2017-06-21T01:26:36.675Z,933.99
2017-06-21T01:26:56.000Z,934.01
2017-06-21T01:27:15.287Z,934.02
2017-06-21T01:27:34.118Z,933.98
2017-06-21T01:27:52.906Z,934.01
2017-06-21T01:28:12.213Z,934.02
2017-06-21T01:28:31.572Z,933.99
2017-06-21T01:28:50.400Z,934.01
2017-06-21T01:29:09.789Z,934.01
2017-06-21T01:29:29.086Z,934.03
2017-06-21T01:29:48.468Z,933.98
2017-06-21T01:30:07.255Z,933.97
2017-06-21T01:30:26.563Z,934.01
2017-06-21T01:30:45.857Z,934.01
2017-06-21T01:31:04.638Z,933.98
2017-06-21T01:31:23.524Z,934
2017-06-21T01:31:42.349Z,934.03
2017-06-21T01:32:01.693Z,933.99
2017-06-21T01:32:20.984Z,933.98
2017-06-21T01:32:39.794Z,933.99
2017-06-21T01:32:59.094Z,933.98
2017-06-21T01:33:17.932Z,933.99
2017-06-21T01:33:36.742Z,933.99
2017-06-21T01:33:56.069Z,934.02
2017-06-21T01:34:14.918Z,934.03
2017-06-21T01:34:33.775Z,934.07
2017-06-21T01:34:53.439Z,934.06
2017-06-21T01:35:13.136Z,934.06
2017-06-21T01:35:33.135Z,934.07
2017-06-21T01:35:53.162Z,934.05
2017-06-21T01:36:13.216Z,934.06
2017-06-21T01:36:33.266Z,934.05
2017-06-21T01:36:52.704Z,934.07
2017-06-21T01:37:12.712Z,934.07
2017-06-21T01:37:32.731Z,934.02
2017-06-21T01:37:52.765Z,934.04
2017-06-21T01:38:13.058Z,934.06
2017-06-21T01:38:33.526Z,934.07
2017-06-21T01:38:52.982Z,934.07
2017-06-21T01:39:12.450Z,934.08
2017-06-21T01:39:32.989Z,934.06
2017-06-21T01:39:53.119Z,934.06
2017-06-21T01:40:13.118Z,934.07
2017-06-21T01:40:33.129Z,934.1
2017-06-21T01:40:53.109Z,934.1
2017-06-21T01:41:13.115Z,934.11
2017-06-21T01:41:32.572Z,934.1
2017-06-21T01:41:52.038Z,934.1
2017-06-21T01:42:12.399Z,934.13
2017-06-21T01:42:32.497Z,934.14
2017-06-21T01:42:51.959Z,934.1
2017-06-21T01:43:12.010Z,934.1
2017-06-21T01:43:32.021Z,934.06
2017-06-21T01:43:52.028Z,934.11
2017-06-21T01:44:11.555Z,934.11
2017-06-21T01:44:31.564Z,934.07
2017-06-21T01:44:51.581Z,934.1
2017-06-21T01:45:11.627Z,934.12
2017-06-21T01:45:31.627Z,934.1
2017-06-21T01:45:51.666Z,934.07
2017-06-21T01:46:11.668Z,934.13
2017-06-21T01:46:31.709Z,934.1
2017-06-21T01:46:51.703Z,934.1
2017-06-21T01:47:45.504Z,934.09
2017-06-21T01:48:05.539Z,934.08
2017-06-21T01:48:25.562Z,934.02
2017-06-21T01:48:45.573Z,934.06
2017-06-21T01:49:05.576Z,934.05
2017-06-21T01:49:25.604Z,934.05
2017-06-21T01:49:45.649Z,934.08
2017-06-21T01:50:05.654Z,934.08
2017-06-21T01:50:25.657Z,934.08
2017-06-21T01:50:45.153Z,934.07
2017-06-21T01:51:05.172Z,934.07
2017-06-21T01:51:25.181Z,934.06
2017-06-21T01:51:45.187Z,934.04
2017-06-21T01:52:05.192Z,934.07
2017-06-21T01:52:25.221Z,934.04
2017-06-21T01:52:45.295Z,934.05
2017-06-21T01:53:04.758Z,934.05
2017-06-21T01:53:24.378Z,934.03
2017-06-21T01:53:44.076Z,934.05
2017-06-21T01:54:03.370Z,934.08
2017-06-21T01:54:22.648Z,934.03
2017-06-21T01:54:41.452Z,934.05
2017-06-21T01:55:00.793Z,934.06
2017-06-21T01:55:20.142Z,934.05
2017-06-21T01:55:39.443Z,934.03
2017-06-21T01:55:58.820Z,934.06
2017-06-21T01:56:19.200Z,934.08
2017-06-21T01:56:38.594Z,934.06
2017-06-21T01:56:57.974Z,934.07
2017-06-21T01:57:17.357Z,934.08
2017-06-21T01:57:36.682Z,934.05
2017-06-21T01:57:55.962Z,934.05
2017-06-21T01:58:14.750Z,934.06
2017-06-21T01:58:34.073Z,934.04
2017-06-21T01:58:52.879Z,934.05
2017-06-21T01:59:12.174Z,934.04
2017-06-21T01:59:31.017Z,934.03
2017-06-21T01:59:50.357Z,934.03
2017-06-21T02:00:09.129Z,934
2017-06-21T02:00:28.471Z,934.01
2017-06-21T02:00:47.763Z,934.03
2017-06-21T02:01:06.581Z,933.98
2017-06-21T02:01:25.362Z,934.03
2017-06-21T02:01:44.661Z,934
2017-06-21T02:02:03.956Z,934.04
2017-06-21T02:02:23.254Z,933.97
2017-06-21T02:02:42.583Z,933.98
2017-06-21T02:03:02.117Z,933.97
2017-06-21T02:03:35.390Z,933.95
2017-06-21T02:03:54.699Z,934.01
2017-06-21T02:04:13.508Z,934.02
2017-06-21T02:04:32.840Z,934.03
2017-06-21T02:04:51.093Z,934.04
2017-06-21T02:05:10.407Z,934.03
2017-06-21T02:05:29.686Z,934.04
2017-06-21T02:05:48.498Z,934.01
2017-06-21T02:06:07.788Z,934.04
2017-06-21T02:06:27.102Z,934.04
2017-06-21T02:06:45.391Z,934.05
2017-06-21T02:07:04.990Z,934.04
2017-06-21T02:07:25.002Z,934.08
2017-06-21T02:07:44.440Z,934.07
2017-06-21T02:08:03.880Z,934.06
2017-06-21T02:08:23.883Z,934.09
2017-06-21T02:08:43.316Z,934.08
2017-06-21T02:09:03.326Z,934.08
2017-06-21T02:09:22.095Z,934.09
2017-06-21T02:09:41.742Z,934.13
2017-06-21T02:10:01.399Z,934.13
2017-06-21T02:10:21.042Z,934.13
2017-06-21T02:10:40.702Z,934.12
2017-06-21T02:11:00.370Z,934.16
2017-06-21T02:11:19.494Z,934.1
2017-06-21T02:11:38.613Z,934.13
2017-06-21T02:11:57.749Z,934.1
2017-06-21T02:12:16.860Z,934.1
2017-06-21T02:12:36.510Z,934.12
2017-06-21T02:12:55.622Z,934.13
2017-06-21T02:13:14.774Z,934.13
2017-06-21T02:13:34.446Z,934.13
2017-06-21T02:13:54.091Z,934.13
2017-06-21T02:14:13.741Z,934.09
2017-06-21T02:14:32.865Z,934.1
2017-06-21T02:14:52.545Z,934.08
2017-06-21T02:15:12.199Z,934.14
2017-06-21T02:15:31.884Z,934.13
2017-06-21T02:15:51.019Z,934.14
2017-06-21T02:16:10.693Z,934.09
2017-06-21T02:16:29.818Z,934.11
2017-06-21T02:16:48.951Z,934.09
2017-06-21T02:17:08.617Z,934.13
2017-06-21T02:17:27.733Z,934.1
2017-06-21T02:17:45.776Z,934.11
2017-06-21T02:18:05.378Z,934.08
2017-06-21T02:18:23.646Z,934.09
2017-06-21T02:18:42.450Z,934.05
2017-06-21T02:19:01.750Z,934.07
2017-06-21T02:19:21.259Z,934.14
2017-06-21T02:19:40.914Z,934.13
2017-06-21T02:20:00.650Z,934.14
2017-06-21T02:20:19.569Z,934.13
2017-06-21T02:20:39.041Z,934.15
2017-06-21T02:20:58.480Z,934.09
2017-06-21T02:21:18.492Z,934.12
2017-06-21T02:21:38.338Z,934.11
2017-06-21T02:21:58.028Z,934.14
2017-06-21T02:22:17.696Z,934.13
2017-06-21T02:22:37.358Z,934.15
2017-06-21T02:22:56.495Z,934.15
2017-06-21T02:23:16.210Z,934.13
2017-06-21T02:23:35.867Z,934.15
2017-06-21T02:23:55.003Z,934.15
2017-06-21T02:24:14.676Z,934.11
2017-06-21T02:24:34.311Z,934.15
2017-06-21T02:24:53.986Z,934.12
2017-06-21T02:25:13.635Z,934.14
2017-06-21T02:25:32.751Z,934.13
2017-06-21T02:25:51.872Z,934.13
2017-06-21T02:26:11.536Z,934.16
2017-06-21T02:26:31.179Z,934.17
2017-06-21T02:26:50.832Z,934.17
2017-06-21T02:27:10.482Z,934.15
2017-06-21T02:27:30.150Z,934.15
2017-06-21T02:27:49.806Z,934.15
2017-06-21T02:28:08.950Z,934.16
2017-06-21T02:28:28.598Z,934.16
2017-06-21T02:28:48.269Z,934.18
2017-06-21T02:29:07.926Z,934.2
2017-06-21T02:29:27.608Z,934.13
2017-06-21T02:29:47.260Z,934.14
2017-06-21T02:30:06.933Z,934.14
2017-06-21T02:30:26.570Z,934.16
2017-06-21T02:30:45.682Z,934.15
2017-06-21T02:31:05.330Z,934.12
2017-06-21T02:31:24.968Z,934.16
2017-06-21T02:31:44.616Z,934.15
2017-06-21T02:32:04.305Z,934.15
2017-06-21T02:32:23.912Z,934.13
2017-06-21T02:32:43.228Z,934.15
2017-06-21T02:33:02.543Z,934.16
2017-06-21T02:33:21.852Z,934.13
2017-06-21T02:33:41.170Z,934.1
2017-06-21T02:34:00.482Z,934.12
2017-06-21T02:34:19.264Z,934.14
2017-06-21T02:34:38.555Z,934.18
2017-06-21T02:34:57.859Z,934.12
2017-06-21T02:35:16.667Z,934.13
2017-06-21T02:35:35.985Z,934.14
2017-06-21T02:35:55.298Z,934.15
2017-06-21T02:36:14.083Z,934.16
2017-06-21T02:36:33.391Z,934.16
2017-06-21T02:36:52.685Z,934.16
2017-06-21T02:37:12.007Z,934.19
2017-06-21T02:37:31.581Z,934.17
2017-06-21T02:37:51.249Z,934.14
2017-06-21T02:38:10.903Z,934.14
2017-06-21T02:38:30.670Z,934.13
2017-06-21T02:38:50.362Z,934.17
2017-06-21T02:39:10.038Z,934.18
2017-06-21T02:39:29.782Z,934.17
2017-06-21T02:39:48.349Z,934.16
2017-06-21T02:40:07.462Z,934.15
2017-06-21T02:40:27.127Z,934.15
2017-06-21T02:40:46.255Z,934.16
2017-06-21T02:41:05.921Z,934.15
2017-06-21T02:41:25.619Z,934.12
2017-06-21T02:41:45.286Z,934.2
2017-06-21T02:42:04.424Z,934.13
2017-06-21T02:42:24.124Z,934.16
2017-06-21T02:42:42.714Z,934.17
2017-06-21T02:43:02.396Z,934.17
2017-06-21T02:43:22.125Z,934.12
2017-06-21T02:43:41.815Z,934.13
2017-06-21T02:44:01.487Z,934.16
2017-06-21T02:44:21.196Z,934.15
2017-06-21T02:44:40.904Z,934.13
2017-06-21T02:45:00.541Z,934.14
2017-06-21T02:45:20.143Z,934.13
2017-06-21T02:45:39.460Z,934.11
2017-06-21T02:45:58.782Z,934.07
2017-06-21T02:46:17.604Z,934.11
2017-06-21T02:46:36.895Z,934.09
2017-06-21T02:46:56.246Z,934.11
2017-06-21T02:47:15.546Z,934.09
2017-06-21T02:47:34.326Z,934.08
2017-06-21T02:47:53.635Z,934.1
2017-06-21T02:48:12.978Z,934.13
2017-06-21T02:48:31.773Z,934.07
2017-06-21T02:48:51.098Z,934.08
2017-06-21T02:49:10.449Z,934.06
2017-06-21T02:49:29.776Z,934.05
2017-06-21T02:49:48.036Z,934.1
2017-06-21T02:50:07.359Z,934.11
2017-06-21T02:50:26.696Z,934.1
2017-06-21T02:50:45.495Z,934.09
2017-06-21T02:51:04.803Z,934.07
2017-06-21T02:51:24.111Z,934.07
2017-06-21T02:51:42.898Z,934.04
2017-06-21T02:52:01.700Z,934.06
2017-06-21T02:52:21.016Z,934.09
2017-06-21T02:52:40.328Z,934.05
2017-06-21T02:52:59.629Z,934.09
2017-06-21T02:53:18.955Z,934.04
2017-06-21T02:53:38.240Z,934.06
2017-06-21T02:53:57.543Z,934.03
2017-06-21T02:54:16.865Z,934.04
2017-06-21T02:54:36.179Z,934.01
2017-06-21T02:54:55.524Z,934.02
2017-06-21T02:55:14.835Z,934
2017-06-21T02:55:34.210Z,934.06
2017-06-21T02:55:53.529Z,934
2017-06-21T02:56:12.840Z,934
2017-06-21T02:56:31.633Z,933.99
2017-06-21T02:56:50.942Z,934.02
2017-06-21T02:57:09.727Z,934.01
2017-06-21T02:57:29.027Z,934.06
2017-06-21T02:57:48.375Z,933.97
2017-06-21T02:58:07.670Z,933.98
2017-06-21T02:58:25.447Z,934.02
2017-06-21T02:58:44.863Z,933.99
2017-06-21T02:59:04.190Z,933.98
2017-06-21T02:59:23.507Z,933.95
2017-06-21T02:59:42.294Z,933.94
2017-06-21T03:00:01.964Z,933.96
2017-06-21T03:00:21.639Z,933.92
2017-06-21T03:00:41.355Z,933.96
2017-06-21T03:01:01.005Z,933.96
2017-06-21T03:01:20.679Z,933.91
2017-06-21T03:01:40.335Z,933.92
2017-06-21T03:02:00.055Z,933.94
2017-06-21T03:02:19.751Z,933.9
2017-06-21T03:02:39.423Z,933.9
2017-06-21T03:02:59.169Z,933.88
2017-06-21T03:03:18.342Z,933.83
2017-06-21T03:03:37.999Z,933.9
2017-06-21T03:03:57.654Z,933.89
2017-06-21T03:04:16.755Z,933.88
2017-06-21T03:04:36.267Z,933.89
2017-06-21T03:04:55.560Z,933.84
2017-06-21T03:05:14.881Z,933.88
2017-06-21T03:05:34.211Z,933.86
2017-06-21T03:05:53.529Z,933.83
2017-06-21T03:06:12.855Z,933.83
2017-06-21T03:06:32.152Z,933.83
2017-06-21T03:06:51.465Z,933.8
2017-06-21T03:07:10.766Z,933.82
2017-06-21T03:07:30.097Z,933.8
2017-06-21T03:07:49.800Z,933.78
2017-06-21T03:08:09.439Z,933.79
2017-06-21T03:08:29.293Z,933.77
2017-06-21T03:08:49.314Z,933.74
2017-06-21T03:09:09.341Z,933.78
2017-06-21T03:09:29.347Z,933.76
2017-06-21T03:09:48.805Z,933.8
2017-06-21T03:10:08.798Z,933.78
2017-06-21T03:10:28.838Z,933.78
2017-06-21T03:10:48.273Z,933.76
2017-06-21T03:11:08.288Z,933.81
2017-06-21T03:11:27.730Z,933.79
2017-06-21T03:11:47.225Z,933.75
2017-06-21T03:12:07.252Z,933.76
2017-06-21T03:12:26.698Z,933.78
2017-06-21T03:12:45.570Z,933.72
2017-06-21T03:13:05.609Z,933.73
2017-06-21T03:13:25.611Z,933.73
2017-06-21T03:13:45.074Z,933.78
2017-06-21T03:14:05.091Z,933.75
2017-06-21T03:14:25.110Z,933.73
2017-06-21T03:14:44.578Z,933.76
2017-06-21T03:15:04.585Z,933.76
2017-06-21T03:15:24.595Z,933.79
2017-06-21T03:15:43.490Z,933.74
2017-06-21T03:16:03.525Z,933.74
2017-06-21T03:16:23.605Z,933.76
2017-06-21T03:16:43.049Z,933.78
2017-06-21T03:17:03.082Z,933.76
2017-06-21T03:17:23.093Z,933.75
2017-06-21T03:17:41.975Z,933.77
2017-06-21T03:18:01.974Z,933.74
2017-06-21T03:18:22.005Z,933.73
2017-06-21T03:18:41.428Z,933.78
2017-06-21T03:19:01.460Z,933.74
2017-06-21T03:19:21.477Z,933.75
2017-06-21T03:19:40.950Z,933.75
2017-06-21T03:20:01.001Z,933.77
2017-06-21T03:20:19.892Z,933.74
2017-06-21T03:20:39.330Z,933.8
2017-06-21T03:20:58.787Z,933.76
2017-06-21T03:21:18.795Z,933.74
2017-06-21T03:21:38.807Z,933.78
2017-06-21T03:21:58.261Z,933.78
2017-06-21T03:22:18.279Z,933.74
2017-06-21T03:22:38.350Z,933.75
2017-06-21T03:22:57.821Z,933.81
2017-06-21T03:23:17.281Z,933.78
2017-06-21T03:23:37.345Z,933.83
2017-06-21T03:23:57.405Z,933.82
2017-06-21T03:24:16.558Z,933.85
2017-06-21T03:24:35.895Z,933.86
2017-06-21T03:24:55.210Z,933.83
2017-06-21T03:25:13.996Z,933.87
2017-06-21T03:25:32.778Z,933.88
2017-06-21T03:25:52.072Z,933.83
2017-06-21T03:26:11.382Z,933.89
2017-06-21T03:26:30.668Z,933.9
2017-06-21T03:26:49.448Z,933.91
2017-06-21T03:27:08.250Z,933.87
2017-06-21T03:27:27.792Z,933.92
2017-06-21T03:27:47.167Z,933.88
2017-06-21T03:28:06.480Z,933.89
2017-06-21T03:28:25.788Z,933.83
2017-06-21T03:28:45.078Z,933.89
2017-06-21T03:29:03.861Z,933.9
2017-06-21T03:29:23.438Z,933.93
2017-06-21T03:29:43.107Z,933.94
2017-06-21T03:30:02.751Z,933.96
2017-06-21T03:30:22.410Z,933.91
2017-06-21T03:30:41.563Z,933.93
2017-06-21T03:31:00.687Z,933.97
2017-06-21T03:31:20.391Z,933.89
2017-06-21T03:31:40.446Z,933.9
2017-06-21T03:32:00.479Z,933.9
2017-06-21T03:32:20.507Z,933.9
2017-06-21T03:32:39.991Z,933.89
2017-06-21T03:33:00.007Z,933.9
2017-06-21T03:33:19.477Z,933.93
2017-06-21T03:33:39.511Z,933.9
2017-06-21T03:33:58.954Z,933.91
2017-06-21T03:34:18.999Z,933.92
2017-06-21T03:34:39.033Z,933.89
2017-06-21T03:34:59.065Z,933.93
2017-06-21T03:35:19.086Z,933.94
2017-06-21T03:35:39.095Z,933.91
2017-06-21T03:35:58.552Z,933.87
2017-06-21T03:36:18.057Z,933.88
2017-06-21T03:36:38.103Z,933.8
2017-06-21T03:36:58.113Z,933.87
2017-06-21T03:37:18.146Z,933.81
2017-06-21T03:37:38.187Z,933.88
2017-06-21T03:37:58.258Z,933.85
2017-06-21T03:38:18.280Z,933.86
2017-06-21T03:38:37.734Z,933.87
2017-06-21T03:38:57.735Z,933.88
2017-06-21T03:39:17.171Z,933.85
2017-06-21T03:39:37.172Z,933.83
2017-06-21T03:39:57.220Z,933.85
2017-06-21T03:40:17.263Z,933.85
2017-06-21T03:40:37.269Z,933.85
2017-06-21T03:40:57.273Z,933.82
2017-06-21T03:41:16.735Z,933.83
2017-06-21T03:41:36.743Z,933.88
2017-06-21T03:41:56.763Z,933.85
2017-06-21T03:42:16.804Z,933.87
2017-06-21T03:42:36.819Z,933.85
2017-06-21T03:42:55.828Z,933.86
2017-06-21T03:43:15.145Z,933.84
2017-06-21T03:43:34.472Z,933.84
2017-06-21T03:43:53.768Z,933.84
2017-06-21T03:44:12.575Z,933.87
2017-06-21T03:44:31.857Z,933.9
2017-06-21T03:44:51.151Z,933.85
2017-06-21T03:45:09.931Z,933.82
2017-06-21T03:45:28.731Z,933.9
2017-06-21T03:45:48.049Z,933.91
2017-06-21T03:46:07.351Z,933.88
2017-06-21T03:46:26.167Z,933.85
2017-06-21T03:46:45.475Z,933.85
2017-06-21T03:47:04.763Z,933.93
2017-06-21T03:47:24.090Z,933.86
2017-06-21T03:47:42.400Z,933.88
2017-06-21T03:48:01.706Z,933.86
2017-06-21T03:48:21.020Z,933.88
2017-06-21T03:48:40.338Z,933.86
2017-06-21T03:48:59.116Z,933.89
2017-06-21T03:49:18.425Z,933.9
2017-06-21T03:49:37.203Z,933.85
2017-06-21T03:49:56.537Z,933.86
2017-06-21T03:50:15.326Z,933.84
2017-06-21T03:50:34.115Z,933.86
2017-06-21T03:50:53.430Z,933.88
2017-06-21T03:51:12.724Z,933.85
2017-06-21T03:51:32.056Z,933.87
2017-06-21T03:51:51.396Z,933.88
2017-06-21T03:52:10.167Z,933.86
2017-06-21T03:52:29.468Z,933.86
2017-06-21T03:52:48.769Z,933.85
2017-06-21T03:53:07.556Z,933.86
2017-06-21T03:53:26.929Z,933.84
2017-06-21T03:53:45.726Z,933.81
2017-06-21T03:54:05.221Z,933.81
2017-06-21T03:54:24.857Z,933.83
2017-06-21T03:54:44.541Z,933.84
2017-06-21T03:55:04.196Z,933.8
2017-06-21T03:55:23.886Z,933.8
2017-06-21T03:55:43.551Z,933.81
2017-06-21T03:56:03.224Z,933.79
2017-06-21T03:56:22.904Z,933.78
2017-06-21T03:56:42.583Z,933.81
2017-06-21T03:57:02.268Z,933.78
2017-06-21T03:57:21.934Z,933.76
2017-06-21T03:57:41.038Z,933.78
2017-06-21T03:58:00.709Z,933.8
2017-06-21T03:58:20.359Z,933.8
2017-06-21T03:58:40.133Z,933.82
2017-06-21T03:58:59.251Z,933.8
2017-06-21T03:59:18.365Z,933.81
2017-06-21T03:59:38.008Z,933.82
2017-06-21T03:59:57.135Z,933.79
2017-06-21T04:00:16.238Z,933.83
2017-06-21T04:00:35.914Z,933.78
2017-06-21T04:00:56.467Z,933.78
2017-06-21T04:01:16.125Z,933.81
2017-06-21T04:01:35.780Z,933.82
2017-06-21T04:01:54.890Z,933.82
2017-06-21T04:02:14.879Z,933.8
2017-06-21T04:02:34.912Z,933.79
2017-06-21T04:02:54.913Z,933.82
2017-06-21T04:03:14.954Z,933.84
2017-06-21T04:03:34.991Z,933.83
2017-06-21T04:03:55.004Z,933.82
2017-06-21T04:04:14.445Z,933.78
2017-06-21T04:04:34.420Z,933.79
2017-06-21T04:04:53.018Z,933.79
2017-06-21T04:05:12.154Z,933.85
2017-06-21T04:05:31.296Z,933.78
2017-06-21T04:05:49.897Z,933.76
2017-06-21T04:06:09.580Z,933.79
2017-06-21T04:06:28.725Z,933.76